UA5113 / N916SW 7700 Squawk Report (21st of January, 2019)

Aircraft CRJ2 Reg No. N916SW Age N/A
Model Regional-Jet Jet engines 2 First flight 03-02
Registered 08-04-02 Rollout 03-02 Delivered 08-04-02
Construction No. 7634 Line No. N/A Series 200LR
ADSHEX ACAE9A Airline name United Express Owner SkyWest Airlines
Airfield based Chicago O`Hare~IL~N First tracked 2017-07-14 16:00:00

Flight history for N916SW

Time Lat Lon Altitude Heading Speed Vertical Rate
2019-01-22 03:07:39 GMT 41.131348 -107.991882 21,350 300 367 -1920
2019-01-22 03:07:32 GMT 41.125076 -107.977417 21,600 300 369 -1920
2019-01-22 03:07:23 GMT 41.116745 -107.958069 21,925 301 373 -1984
2019-01-22 03:07:12 GMT 41.107117 -107.936119 22,300 301 374 -1984
2019-01-22 03:06:56 GMT 41.094543 -107.907227 22,775 301 377 -2048
2019-01-22 03:06:49 GMT 41.088123 -107.892609 23,050 301 379 -2048
2019-01-22 03:06:39 GMT 41.078339 -107.870361 23,425 301 380 -2112
2019-01-22 03:06:28 GMT 41.068710 -107.848412 23,800 301 380 -1728
2019-01-22 03:06:18 GMT 41.059631 -107.827942 24,000 301 378 0
2019-01-22 03:06:07 GMT 41.050186 -107.806519 24,000 301 378 -64
2019-01-22 03:05:55 GMT 41.039288 -107.781937 24,000 301 379 64
2019-01-22 03:05:44 GMT 41.030273 -107.761780 24,000 301 380 0
2019-01-22 03:05:33 GMT 41.021027 -107.740906 24,000 301 380 0
2019-01-22 03:05:24 GMT 41.011497 -107.719452 24,000 301 381 -64
2019-01-22 03:05:12 GMT 41.000519 -107.694702 24,000 301 382 0
2019-01-22 03:05:02 GMT 40.991993 -107.675507 24,000 301 383 0
2019-01-22 03:04:51 GMT 40.982391 -107.653931 24,000 301 383 0
2019-01-22 03:04:38 GMT 40.971542 -107.629700 24,000 301 384 0
2019-01-22 03:04:28 GMT 40.962105 -107.608398 24,000 301 385 -64
2019-01-22 03:04:19 GMT 40.952934 -107.587677 24,000 301 385 0
2019-01-22 03:04:08 GMT 40.943207 -107.565826 24,000 301 384 -64
2019-01-22 03:03:57 GMT 40.933411 -107.543823 24,000 301 382 0
2019-01-22 03:03:45 GMT 40.924072 -107.522949 24,000 301 381 64
2019-01-22 03:03:35 GMT 40.914368 -107.501221 24,000 301 381 -64
2019-01-22 03:03:23 GMT 40.904160 -107.478394 24,000 301 382 128
2019-01-22 03:03:14 GMT 40.894604 -107.456779 24,000 301 383 64
2019-01-22 03:03:03 GMT 40.885117 -107.435608 23,975 301 384 -128
2019-01-22 03:02:52 GMT 40.875137 -107.413452 24,025 301 383 -192
2019-01-22 03:02:41 GMT 40.865135 -107.391045 24,000 301 383 256
2019-01-22 03:02:30 GMT 40.855316 -107.369080 24,000 301 384 -64
2019-01-22 03:02:18 GMT 40.845520 -107.347290 24,000 301 386 -128
2019-01-22 03:02:07 GMT 40.835724 -107.325378 24,000 301 386 0
2019-01-22 03:01:58 GMT 40.825974 -107.303894 24,000 301 387 64
2019-01-22 03:01:47 GMT 40.815792 -107.281303 24,000 301 389 -128
2019-01-22 03:01:35 GMT 40.805923 -107.259270 24,000 301 389 0
2019-01-22 03:01:23 GMT 40.794937 -107.234985 24,000 301 389 0
2019-01-22 03:01:14 GMT 40.786102 -107.215393 24,000 301 390 64
2019-01-22 03:01:03 GMT 40.775711 -107.192291 23,975 301 390 0
2019-01-22 03:00:53 GMT 40.766510 -107.171631 24,025 301 389 -256
2019-01-22 03:00:41 GMT 40.756531 -107.149536 24,025 301 386 192
2019-01-22 03:00:30 GMT 40.745869 -107.126122 24,000 301 386 0
2019-01-22 03:00:21 GMT 40.736931 -107.106339 24,000 301 386 -64
2019-01-22 03:00:10 GMT 40.726925 -107.084175 24,000 301 384 0
2019-01-22 02:59:59 GMT 40.717148 -107.062515 24,000 301 383 64
2019-01-22 02:59:47 GMT 40.707458 -107.041077 24,000 301 382 -64
2019-01-22 02:59:36 GMT 40.697433 -107.019104 24,000 301 383 -64
2019-01-22 02:59:26 GMT 40.687454 -106.997131 24,000 301 383 128
2019-01-22 02:59:16 GMT 40.678116 -106.976685 23,975 301 385 64
2019-01-22 02:59:05 GMT 40.667896 -106.954338 24,000 301 387 -128
2019-01-22 02:58:53 GMT 40.657700 -106.932053 24,000 302 389 64
2019-01-22 02:58:42 GMT 40.647903 -106.910645 23,975 301 392 64
2019-01-22 02:58:33 GMT 40.638199 -106.889282 24,000 301 395 -128
2019-01-22 02:58:22 GMT 40.627907 -106.866760 24,000 302 397 0
2019-01-22 02:58:10 GMT 40.617554 -106.844238 24,025 301 398 0
2019-01-22 02:57:59 GMT 40.607117 -106.821350 24,000 301 399 0
2019-01-22 02:57:50 GMT 40.596909 -106.798889 24,000 302 399 64
2019-01-22 02:57:39 GMT 40.586708 -106.776688 24,000 301 398 -192
2019-01-22 02:57:27 GMT 40.576466 -106.754341 24,000 302 398 192
2019-01-22 02:57:16 GMT 40.566364 -106.732430 24,000 302 397 -64
2019-01-22 02:57:06 GMT 40.555889 -106.709770 24,000 301 397 64
2019-01-22 02:56:56 GMT 40.546066 -106.688293 24,000 301 396 -64
2019-01-22 02:56:44 GMT 40.534382 -106.662704 24,000 302 395 0
2019-01-22 02:56:33 GMT 40.525406 -106.643188 24,000 302 394 -64
2019-01-22 02:56:19 GMT 40.511761 -106.613510 24,000 301 394 64
2019-01-22 02:56:13 GMT 40.505383 -106.599594 24,000 302 392 64
2019-01-22 02:56:02 GMT 40.494862 -106.576813 24,000 302 391 64
2019-01-22 02:55:50 GMT 40.484802 -106.554993 24,000 302 392 64
2019-01-22 02:55:39 GMT 40.474655 -106.532860 24,000 301 390 -64
2019-01-22 02:55:29 GMT 40.464417 -106.510582 24,000 302 389 0
2019-01-22 02:55:19 GMT 40.455002 -106.490234 24,000 302 388 0
2019-01-22 02:55:05 GMT 40.442116 -106.462265 24,000 301 385 -64
2019-01-22 02:54:56 GMT 40.434906 -106.446472 24,025 302 385 -64
2019-01-22 02:54:46 GMT 40.425339 -106.425659 24,000 302 383 64
2019-01-22 02:54:33 GMT 40.412796 -106.398682 24,000 302 384 0
2019-01-22 02:54:25 GMT 40.405109 -106.382240 24,000 302 384 64
2019-01-22 02:54:13 GMT 40.395473 -106.361572 24,000 302 385 64
2019-01-22 02:54:03 GMT 40.384827 -106.338562 24,000 302 386 0
2019-01-22 02:53:51 GMT 40.374477 -106.316383 24,000 302 387 -64
2019-01-22 02:53:42 GMT 40.365692 -106.297791 24,000 302 389 0
2019-01-22 02:53:28 GMT 40.351639 -106.267944 24,000 302 392 64
2019-01-22 02:53:19 GMT 40.339554 -106.241882 24,025 302 396 384
2019-01-22 02:53:07 GMT 40.333370 -106.228676 24,000 302 396 384
2019-01-22 02:53:04 GMT 40.329182 -106.219688 24,000 302 396 384
2019-01-22 02:53:00 GMT 40.325363 -106.211510 23,975 302 396 192
2019-01-22 02:52:49 GMT 40.314926 -106.189148 24,000 302 398 0
2019-01-22 02:52:37 GMT 40.303986 -106.165710 24,000 302 398 0
2019-01-22 02:52:28 GMT 40.294327 -106.145081 24,000 302 400 64
2019-01-22 02:52:19 GMT 40.285889 -106.127121 24,000 302 401 -64
2019-01-22 02:52:15 GMT 40.281693 -106.118225 24,000 302 402 64
2019-01-22 02:52:09 GMT 40.276657 -106.107483 24,000 302 402 0
2019-01-22 02:52:05 GMT 40.273544 -106.100830 24,000 302 402 0
2019-01-22 02:51:58 GMT 40.265625 -106.083801 24,000 302 403 -128
2019-01-22 02:51:53 GMT 40.261368 -106.074585 24,000 302 403 -64
2019-01-22 02:51:48 GMT 40.255966 -106.062927 24,000 302 405 0
2019-01-22 02:51:44 GMT 40.251579 -106.053459 24,000 302 405 0
2019-01-22 02:51:36 GMT 40.244690 -106.038857 24,000 302 405 0
2019-01-22 02:51:32 GMT 40.240360 -106.029678 24,000 302 406 0
2019-01-22 02:51:26 GMT 40.234360 -106.016846 24,000 302 407 -64
2019-01-22 02:51:22 GMT 40.231934 -106.011635 24,025 302 407 -64
2019-01-22 02:51:15 GMT 40.222961 -105.992554 24,000 302 406 64
2019-01-22 02:51:12 GMT 40.220901 -105.988167 24,000 302 407 64
2019-01-22 02:51:07 GMT 40.216644 -105.979126 24,000 302 404 128
2019-01-22 02:51:04 GMT 40.213593 -105.972687 23,975 302 404 128
2019-01-22 02:50:57 GMT 40.207031 -105.958740 23,975 302 401 0
2019-01-22 02:50:53 GMT 40.202545 -105.949280 23,875 302 393 1088
2019-01-22 02:50:47 GMT 40.196548 -105.936523 23,875 302 396 512
2019-01-22 02:50:41 GMT 40.189941 -105.922501 23,800 302 394 1088
2019-01-22 02:50:33 GMT 40.182953 -105.907715 23,675 302 393 1088
2019-01-22 02:50:30 GMT 40.180069 -105.901611 23,650 302 393 1088
2019-01-22 02:50:27 GMT 40.176636 -105.894348 23,575 302 393 1088
2019-01-22 02:50:22 GMT 40.172836 -105.886292 23,475 302 392 1152
2019-01-22 02:50:19 GMT 40.170067 -105.880424 23,450 302 392 1088
2019-01-22 02:50:12 GMT 40.162766 -105.864929 23,300 302 391 1088
2019-01-22 02:50:06 GMT 40.157356 -105.853462 23,175 302 391 1152
2019-01-22 02:50:01 GMT 40.152695 -105.843628 23,100 302 390 1088
2019-01-22 02:49:57 GMT 40.149628 -105.836983 23,025 302 389 1216
2019-01-22 02:49:50 GMT 40.142624 -105.821899 22,875 301 388 1152
2019-01-22 02:49:47 GMT 40.139832 -105.815857 22,825 302 387 1216
2019-01-22 02:49:40 GMT 40.132683 -105.800461 22,675 302 386 1152
2019-01-22 02:49:37 GMT 40.129890 -105.794533 22,600 302 386 1280
2019-01-22 02:49:29 GMT 40.122955 -105.779861 22,450 302 385 1152
2019-01-22 02:49:25 GMT 40.119743 -105.773125 22,375 302 385 1280
2019-01-22 02:49:18 GMT 40.112854 -105.758453 22,225 302 385 1216
2019-01-22 02:49:14 GMT 40.109501 -105.751335 22,150 302 384 1152
2019-01-22 02:49:08 GMT 40.103031 -105.737480 22,000 302 384 1152
2019-01-22 02:49:05 GMT 40.099911 -105.730675 21,950 302 384 1088
2019-01-22 02:48:57 GMT 40.093323 -105.716675 21,825 302 383 1024
2019-01-22 02:48:53 GMT 40.090210 -105.709961 21,750 302 383 960
2019-01-22 02:48:47 GMT 40.083618 -105.695740 21,650 302 381 1024
2019-01-22 02:48:41 GMT 40.078537 -105.684692 21,550 302 380 896
2019-01-22 02:48:37 GMT 40.074772 -105.676682 21,475 302 379 832
2019-01-22 02:48:34 GMT 40.072025 -105.670815 21,425 302 379 832
2019-01-22 02:48:31 GMT 40.068787 -105.664001 21,400 302 379 704
2019-01-22 02:48:25 GMT 40.060760 -105.647217 21,300 303 376 640
2019-01-22 02:48:22 GMT 40.060760 -105.647217 21,300 303 376 512
2019-01-22 02:48:19 GMT 40.058441 -105.642395 21,275 302 374 704
2019-01-22 02:48:15 GMT 40.054230 -105.633606 21,225 302 372 896
2019-01-22 02:48:10 GMT 40.050892 -105.626556 21,150 303 371 1216
2019-01-22 02:48:05 GMT 40.044888 -105.614136 21,025 302 367 832
2019-01-22 02:48:00 GMT 40.036926 -105.597214 20,975 302 366 1280
2019-01-22 02:47:53 GMT 40.034866 -105.592896 20,825 302 363 1216
2019-01-22 02:47:50 GMT 40.031807 -105.586418 20,750 302 362 1280
2019-01-22 02:47:43 GMT 40.025803 -105.573547 20,600 302 362 1088
2019-01-22 02:47:39 GMT 40.022186 -105.565735 20,500 302 362 1280
2019-01-22 02:47:32 GMT 40.016418 -105.553406 20,100 302 361 1280
2019-01-22 02:47:28 GMT 40.012486 -105.545090 20,275 302 359 1216
2019-01-22 02:47:24 GMT 40.008854 -105.537292 20,200 302 359 1280
2019-01-22 02:47:21 GMT 40.006947 -105.533295 20,150 302 358 1344
2019-01-22 02:47:17 GMT 40.003006 -105.525024 20,050 303 359 1408
2019-01-22 02:47:13 GMT 39.997513 -105.513672 19,925 303 357 1536
2019-01-22 02:47:10 GMT 39.997513 -105.513672 19,875 303 358 1472
2019-01-22 02:47:06 GMT 39.990978 -105.499962 19,625 294 352 1472
2019-01-22 02:47:03 GMT 39.990978 -105.499962 19,675 298 354 1408
2019-01-22 02:47:00 GMT 39.988495 -105.494202 19,625 296 353 1472
2019-01-22 02:46:54 GMT 39.984787 -105.482910 19,475 288 350 1600
2019-01-22 02:46:51 GMT 39.983551 -105.477661 19,400 284 348 1216
2019-01-22 02:46:48 GMT 39.982273 -105.470123 19,325 278 344 1280
2019-01-22 02:46:44 GMT 39.981529 -105.461449 19,225 272 342 1408
2019-01-22 02:46:41 GMT 39.981388 -105.455269 19,175 270 341 1280
2019-01-22 02:46:37 GMT 39.981445 -105.450134 19,125 269 338 1408
2019-01-22 02:46:33 GMT 39.981716 -105.438477 18,975 269 338 1408
2019-01-22 02:46:30 GMT 39.981949 -105.427925 18,850 269 336 1600
2019-01-22 02:46:22 GMT 39.982269 -105.416016 18,675 269 335 1536
2019-01-22 02:46:16 GMT 39.982452 -105.407532 18,575 268 334 1728
2019-01-22 02:46:09 GMT 39.982834 -105.390411 18,350 268 334 1792
2019-01-22 02:46:06 GMT 39.982971 -105.386414 18,300 268 334 1600
2019-01-22 02:46:02 GMT 39.983185 -105.378967 18,200 268 332 1664
2019-01-22 02:45:59 GMT 39.983437 -105.370369 18,050 268 332 1856
2019-01-22 02:45:55 GMT 39.983597 -105.363770 17,950 269 332 1856
2019-01-22 02:45:51 GMT 39.983780 -105.356567 17,825 269 333 2048
2019-01-22 02:45:48 GMT 39.983952 -105.348335 17,675 270 334 2112
2019-01-22 02:45:45 GMT 39.983963 -105.343323 17,600 270 334 2304
2019-01-22 02:45:37 GMT 39.983780 -105.326050 17,275 273 336 2176
2019-01-22 02:45:33 GMT 39.983597 -105.321167 17,200 273 336 2112
2019-01-22 02:45:28 GMT 39.983112 -105.310013 16,950 275 338 2240
2019-01-22 02:45:25 GMT 39.982819 -105.305359 16,950 275 338 2240
2019-01-22 02:45:21 GMT 39.981903 -105.294281 16,700 278 337 2240
2019-01-22 02:45:15 GMT 39.980785 -105.283356 16,500 279 337 2496
2019-01-22 02:45:12 GMT 39.980072 -105.277161 16,375 279 338 2368
2019-01-22 02:45:08 GMT 39.978973 -105.267944 16,175 280 338 2048
2019-01-22 02:45:05 GMT 39.978317 -105.262505 16,125 280 338 2112
2019-01-22 02:45:02 GMT 39.977554 -105.256226 16,000 280 338 2112
2019-01-22 02:44:58 GMT 39.976597 -105.248398 15,850 280 337 2112
2019-01-22 02:44:54 GMT 39.975662 -105.240784 15,800 280 337 2048
2019-01-22 02:44:51 GMT 39.974991 -105.235413 15,650 279 335 1920
2019-01-22 02:44:47 GMT 39.973896 -105.225990 15,500 279 334 1664
2019-01-22 02:44:43 GMT 39.973022 -105.218262 15,375 279 333 1536
2019-01-22 02:44:40 GMT 39.972546 -105.214066 15,350 279 332 1536
2019-01-22 02:44:37 GMT 39.971832 -105.207947 15,275 279 332 1472
2019-01-22 02:44:33 GMT 39.970867 -105.199020 15,075 278 328 1920
2019-01-22 02:44:30 GMT 39.970123 -105.191971 15,075 278 328 1920
2019-01-22 02:44:26 GMT 39.969288 -105.184540 14,875 279 327 2944
2019-01-22 02:44:22 GMT 39.968536 -105.177734 14,625 279 327 3200
2019-01-22 02:44:19 GMT 39.967842 -105.171684 14,525 279 328 3136
2019-01-22 02:44:14 GMT 39.966751 -105.161743 14,300 279 329 2560
2019-01-22 02:44:11 GMT 39.965981 -105.154831 14,150 279 329 2624
2019-01-22 02:44:08 GMT 39.965469 -105.150520 14,100 279 329 2432
2019-01-22 02:44:05 GMT 39.964676 -105.143471 13,925 279 330 1920
2019-01-22 02:44:01 GMT 39.963089 -105.129761 13,775 279 329 1600
2019-01-22 02:43:58 GMT 39.963089 -105.129761 13,725 279 328 1600
2019-01-22 02:43:53 GMT 39.961990 -105.119385 13,575 278 326 1600
2019-01-22 02:43:50 GMT 39.961559 -105.115318 13,525 278 325 1600
2019-01-22 02:43:46 GMT 39.960812 -105.108322 13,450 278 324 1728
2019-01-22 02:43:42 GMT 39.959930 -105.099670 13,325 279 323 2368
2019-01-22 02:43:38 GMT 39.958969 -105.090820 13,075 278 323 2496
2019-01-22 02:43:35 GMT 39.958439 -105.085602 12,975 279 322 2432
2019-01-22 02:43:32 GMT 39.957733 -105.079285 12,825 279 322 2368
2019-01-22 02:43:28 GMT 39.957047 -105.073120 12,725 279 321 2048
2019-01-22 02:43:25 GMT 39.956314 -105.067383 12,625 280 321 2176
2019-01-22 02:43:21 GMT 39.955307 -105.059387 12,450 280 320 2240
2019-01-22 02:43:15 GMT 39.953785 -105.047462 12,075 281 317 2560
2019-01-22 02:43:11 GMT 39.952667 -105.039536 12,025 281 317 2624
2019-01-22 02:43:06 GMT 39.951645 -105.031799 11,850 280 316 2240
2019-01-22 02:43:02 GMT 39.950619 -105.024490 11,725 281 316 2240
2019-01-22 02:42:59 GMT 39.949997 -105.019836 11,625 281 315 2112
2019-01-22 02:42:56 GMT 39.948711 -105.010696 11,450 279 311 2176
2019-01-22 02:42:53 GMT 39.948196 -105.006638 11,375 279 311 2112
2019-01-22 02:42:45 GMT 39.946701 -104.991577 11,125 275 308 1728
2019-01-22 02:42:42 GMT 39.946381 -104.985718 11,025 274 301 2240
2019-01-22 02:42:38 GMT 39.946011 -104.977486 10,875 274 302 2112
2019-01-22 02:42:35 GMT 39.945786 -104.973267 10,800 274 300 2496
2019-01-22 02:42:30 GMT 39.945358 -104.964066 10,650 274 300 2368
2019-01-22 02:42:27 GMT 39.945126 -104.959381 10,525 275 298 1472
2019-01-22 02:42:23 GMT 39.944798 -104.953644 10,450 275 296 832
2019-01-22 02:42:20 GMT 39.944241 -104.943031 10,425 274 292 320
2019-01-22 02:42:17 GMT 39.944241 -104.943031 10,400 274 290 256
2019-01-22 02:42:14 GMT 39.943821 -104.934288 10,400 275 288 128
2019-01-22 02:42:10 GMT 39.943497 -104.929108 10,375 275 288 64
2019-01-22 02:42:07 GMT 39.943268 -104.925476 10,400 276 288 -192
2019-01-22 02:42:04 GMT 39.942703 -104.917747 10,425 276 288 -128
2019-01-22 02:41:59 GMT 39.942192 -104.910820 10,425 276 288 -128
2019-01-22 02:41:56 GMT 39.941868 -104.906326 10,450 277 288 -256
2019-01-22 02:41:53 GMT 39.941162 -104.898254 10,450 277 288 -320
2019-01-22 02:41:49 GMT 39.940563 -104.891464 10,450 277 288 -128
2019-01-22 02:41:45 GMT 39.940144 -104.886665 10,450 277 287 384
2019-01-22 02:41:41 GMT 39.939514 -104.879639 10,400 277 289 896
2019-01-22 02:41:35 GMT 39.938469 -104.868683 10,350 279 291 -832
2019-01-22 02:41:32 GMT 39.937866 -104.863281 10,350 279 291 -896
2019-01-22 02:41:27 GMT 39.937088 -104.855957 10,425 278 287 -576
2019-01-22 02:41:23 GMT 39.935669 -104.842346 10,250 279 281 1152
2019-01-22 02:41:20 GMT 39.935669 -104.842346 10,375 279 281 1152
2019-01-22 02:41:17 GMT 39.935070 -104.837158 10,325 279 281 1152
2019-01-22 02:41:14 GMT 39.933765 -104.825424 10,250 278 275 576
2019-01-22 02:41:09 GMT 39.933765 -104.825424 10,225 278 276 512
2019-01-22 02:41:06 GMT 39.933208 -104.819870 10,200 278 272 896
2019-01-22 02:41:03 GMT 39.932697 -104.815002 10,125 277 261 1792
2019-01-22 02:41:00 GMT 39.932091 -104.808571 10,025 277 265 1792
2019-01-22 02:40:53 GMT 39.931065 -104.797523 9,825 277 261 1792
2019-01-22 02:40:49 GMT 39.930679 -104.793274 9,750 277 259 1728
2019-01-22 02:40:45 GMT 39.930088 -104.785660 9,625 276 257 1280
2019-01-22 02:40:42 GMT 39.929810 -104.781670 9,550 276 251 1152
2019-01-22 02:40:38 GMT 39.929344 -104.775360 9,475 275 247 960
2019-01-22 02:40:32 GMT 39.928738 -104.766190 9,050 276 232 2496
2019-01-22 02:40:27 GMT 39.928391 -104.761047 9,250 276 236 2048
2019-01-22 02:40:23 GMT 39.927979 -104.755066 9,100 276 233 2560
2019-01-22 02:40:18 GMT 39.927437 -104.747025 8,650 276 232 2496
2019-01-22 02:40:11 GMT 39.926643 -104.736534 8,475 279 223 2112
2019-01-22 02:40:08 GMT 39.926239 -104.732361 8,475 279 223 2112
2019-01-22 02:40:02 GMT 39.925247 -104.725990 8,275 287 218 2624
2019-01-22 02:39:57 GMT 39.923897 -104.720497 8,100 293 217 2240
2019-01-22 02:39:53 GMT 39.921661 -104.714279 7,925 301 214 1792
2019-01-22 02:39:49 GMT 39.919830 -104.710571 7,825 308 211 1728
2019-01-22 02:39:41 GMT 39.913654 -104.702271 7,575 324 203 1408
We lost coverage of the aircraft here for a total of 139 minutes
2019-01-22 00:20:51 GMT 39.859131 -104.687286 5,975 0 163 -768
2019-01-22 00:20:46 GMT 39.855194 -104.687286 6,050 0 164 -768
2019-01-22 00:20:36 GMT 39.848484 -104.687256 6,175 0 161 -896
2019-01-22 00:20:26 GMT 39.839916 -104.687256 6,350 0 157 -896
2019-01-22 00:20:18 GMT 39.835190 -104.687286 6,450 0 156 -1088
2019-01-22 00:20:15 GMT 39.833122 -104.687317 6,500 0 157 -960
2019-01-22 00:20:06 GMT 39.825623 -104.687469 6,675 0 156 -960
2019-01-22 00:19:58 GMT 39.820087 -104.687561 6,775 0 155 -832
2019-01-22 00:19:54 GMT 39.817703 -104.687531 6,800 0 155 -768
2019-01-22 00:19:45 GMT 39.810452 -104.687500 6,925 0 155 -704
2019-01-22 00:19:34 GMT 39.802860 -104.687561 7,050 0 153 -576
2019-01-22 00:19:25 GMT 39.796947 -104.687561 7,150 0 151 -640
2019-01-22 00:19:22 GMT 39.794357 -104.687531 7,200 0 150 -704
2019-01-22 00:19:13 GMT 39.788452 -104.687531 7,300 0 148 -768
2019-01-22 00:19:04 GMT 39.782425 -104.687622 7,400 0 149 -832
2019-01-22 00:19:01 GMT 39.780716 -104.687645 7,450 0 150 -832
2019-01-22 00:18:54 GMT 39.774902 -104.687767 7,575 1 151 -960
2019-01-22 00:18:51 GMT 39.772659 -104.687828 7,625 1 151 -1024
2019-01-22 00:18:46 GMT 39.769180 -104.687943 7,700 1 152 -1152
2019-01-22 00:18:42 GMT 39.766739 -104.687988 7,750 1 151 -1088
2019-01-22 00:18:31 GMT 39.759243 -104.688171 7,950 1 157 -1344
2019-01-22 00:18:28 GMT 39.757381 -104.688232 8,000 1 161 -1152
2019-01-22 00:18:24 GMT 39.754539 -104.688293 8,100 1 166 -1152
2019-01-22 00:18:20 GMT 39.751099 -104.688362 8,150 1 165 -1216
2019-01-22 00:18:15 GMT 39.746578 -104.688477 8,275 1 168 -1408
2019-01-22 00:18:10 GMT 39.742859 -104.688599 8,375 0 173 -1216
2019-01-22 00:18:06 GMT 39.740616 -104.688599 8,425 0 174 -1152
2019-01-22 00:18:02 GMT 39.736908 -104.688660 8,500 0 176 -1088
2019-01-22 00:17:59 GMT 39.734383 -104.688721 8,550 0 178 -960
2019-01-22 00:17:55 GMT 39.731003 -104.688782 8,625 1 180 -960
2019-01-22 00:17:52 GMT 39.728302 -104.688904 8,675 1 183 -896
2019-01-22 00:17:48 GMT 39.725353 -104.688965 8,725 1 184 -896
2019-01-22 00:17:44 GMT 39.722031 -104.689079 8,900 0 185 -960
2019-01-22 00:17:41 GMT 39.719284 -104.689079 8,825 0 185 -960
2019-01-22 00:17:38 GMT 39.716274 -104.689148 8,875 0 186 -832
2019-01-22 00:17:35 GMT 39.713608 -104.689201 8,925 0 187 -1024
2019-01-22 00:17:30 GMT 39.709808 -104.689255 9,000 0 188 -832
2019-01-22 00:17:26 GMT 39.705196 -104.689331 9,050 0 190 -704
2019-01-22 00:17:22 GMT 39.702484 -104.689377 9,100 0 190 -832
2019-01-22 00:17:19 GMT 39.697422 -104.689514 9,175 0 191 -640
2019-01-22 00:17:16 GMT 39.697422 -104.689514 9,175 0 191 -640
2019-01-22 00:17:12 GMT 39.693283 -104.689560 9,225 0 191 -576
2019-01-22 00:17:09 GMT 39.692047 -104.689613 9,225 0 191 -576
2019-01-22 00:17:06 GMT 39.688156 -104.689674 9,250 0 191 -512
2019-01-22 00:17:00 GMT 39.682896 -104.689697 9,325 0 193 -512
2019-01-22 00:16:55 GMT 39.678680 -104.689674 9,375 0 193 -576
2019-01-22 00:16:51 GMT 39.673141 -104.689735 9,425 0 193 -512
2019-01-22 00:16:45 GMT 39.669304 -104.689880 9,450 1 195 -64
2019-01-22 00:16:39 GMT 39.663857 -104.690002 9,450 1 198 0
2019-01-22 00:16:33 GMT 39.659546 -104.690094 9,450 1 199 -192
2019-01-22 00:16:29 GMT 39.655472 -104.690216 9,450 0 200 0
2019-01-22 00:16:26 GMT 39.651333 -104.690308 9,450 1 200 64
2019-01-22 00:16:23 GMT 39.649933 -104.690331 9,450 1 200 64
2019-01-22 00:16:17 GMT 39.643433 -104.690453 9,450 1 200 -64
2019-01-22 00:16:13 GMT 39.639648 -104.690552 9,450 1 201 128
2019-01-22 00:16:08 GMT 39.635468 -104.690689 9,425 1 201 0
2019-01-22 00:16:05 GMT 39.632126 -104.690811 9,425 0 200 -64
2019-01-22 00:15:57 GMT 39.625729 -104.690918 9,450 0 200 192
2019-01-22 00:15:54 GMT 39.622379 -104.690979 9,425 0 201 192
2019-01-22 00:15:51 GMT 39.619583 -104.691040 9,425 1 201 -64
2019-01-22 00:15:48 GMT 39.617249 -104.691109 9,425 1 201 -192
2019-01-22 00:15:44 GMT 39.612511 -104.691223 9,450 1 201 -64
2019-01-22 00:15:40 GMT 39.610382 -104.691292 9,450 1 201 128
2019-01-22 00:15:34 GMT 39.603432 -104.691528 9,425 1 200 64
2019-01-22 00:15:30 GMT 39.600174 -104.691643 9,425 1 201 64
2019-01-22 00:15:27 GMT 39.597382 -104.691765 9,425 1 201 -64
2019-01-22 00:15:23 GMT 39.593189 -104.691895 9,425 1 201 -64
2019-01-22 00:15:20 GMT 39.590771 -104.691956 9,450 1 201 -64
2019-01-22 00:15:15 GMT 39.585846 -104.692123 9,450 1 200 64
2019-01-22 00:15:12 GMT 39.583786 -104.692184 9,425 1 200 64
2019-01-22 00:15:09 GMT 39.580948 -104.692261 9,425 2 200 0
2019-01-22 00:15:05 GMT 39.577225 -104.692444 9,425 1 200 -128
2019-01-22 00:15:02 GMT 39.573624 -104.692604 9,450 1 201 -64
2019-01-22 00:14:59 GMT 39.570831 -104.692719 9,450 1 201 -128
2019-01-22 00:14:55 GMT 39.567913 -104.692810 9,450 1 204 64
2019-01-22 00:14:51 GMT 39.563583 -104.692993 9,450 1 204 64
2019-01-22 00:14:48 GMT 39.561218 -104.693077 9,425 1 205 192
2019-01-22 00:14:44 GMT 39.556973 -104.693237 9,450 1 205 192
2019-01-22 00:14:41 GMT 39.553848 -104.693375 9,425 1 205 0
2019-01-22 00:14:38 GMT 39.551060 -104.693542 9,450 2 206 0
2019-01-22 00:14:34 GMT 39.548035 -104.693665 9,450 2 206 0
2019-01-22 00:14:29 GMT 39.543472 -104.693970 9,450 3 206 0
2019-01-22 00:14:24 GMT 39.537643 -104.694511 9,425 5 206 -64
2019-01-22 00:14:19 GMT 39.532951 -104.695129 9,450 6 207 0
2019-01-22 00:14:16 GMT 39.530777 -104.695465 9,450 7 207 0
2019-01-22 00:14:13 GMT 39.528389 -104.695862 9,450 8 208 0
2019-01-22 00:14:09 GMT 39.520844 -104.697319 9,450 9 208 0
2019-01-22 00:14:06 GMT 39.520844 -104.697319 9,425 11 209 0
2019-01-22 00:14:03 GMT 39.518372 -104.697914 9,425 11 209 0
2019-01-22 00:13:56 GMT 39.512466 -104.699532 9,450 14 210 -64
2019-01-22 00:13:52 GMT 39.508232 -104.700867 9,450 14 211 0
2019-01-22 00:13:44 GMT 39.500656 -104.703766 9,450 19 211 64
2019-01-22 00:13:41 GMT 39.498505 -104.704666 9,450 19 211 64
2019-01-22 00:13:36 GMT 39.492592 -104.707397 9,450 21 212 0
2019-01-22 00:13:32 GMT 39.488342 -104.709679 9,450 23 212 0
2019-01-22 00:13:26 GMT 39.484119 -104.712097 9,450 24 212 64
2019-01-22 00:13:23 GMT 39.480789 -104.714035 9,450 24 213 0
2019-01-22 00:13:20 GMT 39.478905 -104.715149 9,450 24 213 128
2019-01-22 00:13:14 GMT 39.472759 -104.718811 9,450 24 213 -64
2019-01-22 00:13:10 GMT 39.468803 -104.721191 9,450 25 213 128
2019-01-22 00:13:02 GMT 39.462193 -104.725220 9,425 25 213 -64
2019-01-22 00:12:59 GMT 39.459778 -104.726692 9,450 25 213 -64
2019-01-22 00:12:51 GMT 39.452362 -104.731354 9,450 26 211 64
2019-01-22 00:12:40 GMT 39.442520 -104.737625 9,425 26 211 64
2019-01-22 00:12:33 GMT 39.436890 -104.741203 9,425 27 212 0
2019-01-22 00:12:29 GMT 39.432819 -104.744019 9,425 31 213 -64
2019-01-22 00:12:22 GMT 39.428070 -104.748169 9,425 42 215 64
2019-01-22 00:12:18 GMT 39.424297 -104.753113 9,425 52 217 64
2019-01-22 00:12:11 GMT 39.421272 -104.759888 9,425 67 221 0
2019-01-22 00:12:06 GMT 39.419769 -104.766159 9,450 81 227 -128
2019-01-22 00:12:02 GMT 39.419266 -104.772133 9,450 89 232 -320
2019-01-22 00:11:57 GMT 39.419220 -104.779060 9,500 90 236 -384
2019-01-22 00:11:50 GMT 39.419312 -104.787598 9,450 90 244 384
2019-01-22 00:11:47 GMT 39.419403 -104.794106 9,450 90 249 -64
2019-01-22 00:11:41 GMT 39.419495 -104.802704 9,450 90 251 0
2019-01-22 00:11:36 GMT 39.419552 -104.810669 9,450 90 250 64
2019-01-22 00:11:30 GMT 39.419678 -104.818588 9,450 90 249 0
2019-01-22 00:11:25 GMT 39.419724 -104.825989 9,450 90 247 0
2019-01-22 00:11:20 GMT 39.419830 -104.833801 9,450 90 246 128
2019-01-22 00:11:17 GMT 39.419861 -104.838051 9,450 90 245 64
2019-01-22 00:11:14 GMT 39.419876 -104.841736 9,450 90 245 64
2019-01-22 00:11:09 GMT 39.419998 -104.849457 9,425 91 244 192
2019-01-22 00:11:06 GMT 39.420155 -104.857178 9,425 91 244 128
2019-01-22 00:10:59 GMT 39.420528 -104.870850 9,425 93 254 -64
2019-01-22 00:10:55 GMT 39.420528 -104.870850 9,425 94 256 -128
2019-01-22 00:10:52 GMT 39.420685 -104.873459 9,425 95 258 -64
2019-01-22 00:10:46 GMT 39.422390 -104.884888 9,425 110 266 0
2019-01-22 00:10:43 GMT 39.423599 -104.889099 9,425 114 268 0
2019-01-22 00:10:36 GMT 39.428787 -104.899971 9,425 132 272 -64
2019-01-22 00:10:32 GMT 39.430984 -104.903130 9,425 144 271 0
2019-01-22 00:10:26 GMT 39.436684 -104.909241 9,425 146 271 -64
2019-01-22 00:10:23 GMT 39.439682 -104.911491 9,450 154 270 -64
2019-01-22 00:10:20 GMT 39.442638 -104.913330 9,450 158 269 64
2019-01-22 00:10:15 GMT 39.450974 -104.916565 9,450 169 268 0
2019-01-22 00:10:11 GMT 39.454651 -104.917480 9,450 169 269 64
2019-01-22 00:10:08 GMT 39.459183 -104.918541 9,450 169 269 0
2019-01-22 00:10:05 GMT 39.460518 -104.918823 9,450 169 270 0
2019-01-22 00:10:02 GMT 39.465317 -104.919968 9,425 169 270 64
2019-01-22 00:09:59 GMT 39.468292 -104.920631 9,425 169 270 0
2019-01-22 00:09:54 GMT 39.476067 -104.922485 9,425 169 271 0
2019-01-22 00:09:51 GMT 39.479790 -104.923340 9,450 169 272 -64
2019-01-22 00:09:48 GMT 39.481659 -104.923737 9,450 170 272 -64
2019-01-22 00:09:43 GMT 39.488495 -104.925232 9,450 170 272 64
2019-01-22 00:09:39 GMT 39.495117 -104.926659 9,425 170 272 0
2019-01-22 00:09:35 GMT 39.499832 -104.927612 9,450 170 273 0
2019-01-22 00:09:31 GMT 39.504822 -104.928688 9,450 170 273 0
2019-01-22 00:09:27 GMT 39.507843 -104.929283 9,450 170 273 0
2019-01-22 00:09:22 GMT 39.514935 -104.930725 9,450 170 272 -192
2019-01-22 00:09:17 GMT 39.520893 -104.932007 9,475 170 270 -128
2019-01-22 00:09:12 GMT 39.527321 -104.933411 9,475 169 269 -64
2019-01-22 00:09:09 GMT 39.532104 -104.934540 9,475 169 268 64
2019-01-22 00:09:05 GMT 39.537094 -104.935669 9,475 169 267 -64
2019-01-22 00:09:02 GMT 39.540260 -104.936401 9,475 169 267 -64
2019-01-22 00:08:59 GMT 39.543938 -104.937317 9,475 169 266 0
2019-01-22 00:08:56 GMT 39.546982 -104.938004 9,475 169 265 0
2019-01-22 00:08:51 GMT 39.552521 -104.939316 9,475 169 265 0
2019-01-22 00:08:48 GMT 39.557251 -104.940369 9,475 169 265 0
2019-01-22 00:08:43 GMT 39.561581 -104.941406 9,475 169 264 0
2019-01-22 00:08:40 GMT 39.565445 -104.942322 9,475 169 264 -64
2019-01-22 00:08:35 GMT 39.573174 -104.944092 9,475 169 264 0
2019-01-22 00:08:30 GMT 39.579071 -104.945465 9,475 169 263 128
2019-01-22 00:08:27 GMT 39.582066 -104.946167 9,475 169 263 64
2019-01-22 00:08:23 GMT 39.587791 -104.947632 9,475 169 263 -64
2019-01-22 00:08:19 GMT 39.590332 -104.948212 9,475 169 263 0
2019-01-22 00:08:16 GMT 39.594864 -104.949348 9,475 169 263 64
2019-01-22 00:08:12 GMT 39.599800 -104.950562 9,475 169 264 0
2019-01-22 00:08:09 GMT 39.603058 -104.951317 9,475 169 264 64
2019-01-22 00:08:06 GMT 39.608459 -104.952698 9,475 168 265 64
2019-01-22 00:08:02 GMT 39.613449 -104.953941 9,475 168 266 0
2019-01-22 00:07:58 GMT 39.615875 -104.954544 9,450 169 267 0
2019-01-22 00:07:55 GMT 39.624519 -104.956726 9,475 168 268 -128
2019-01-22 00:07:52 GMT 39.624519 -104.956726 9,475 168 269 -128
2019-01-22 00:07:49 GMT 39.628941 -104.957825 9,475 169 269 -64
2019-01-22 00:07:44 GMT 39.634342 -104.959229 9,475 168 272 192
2019-01-22 00:07:41 GMT 39.637554 -104.960022 9,475 169 272 192
2019-01-22 00:07:38 GMT 39.640812 -104.960815 9,475 169 272 128
2019-01-22 00:07:33 GMT 39.646362 -104.962242 9,450 168 272 -64
2019-01-22 00:07:30 GMT 39.651306 -104.963440 9,450 169 268 -64
2019-01-22 00:07:27 GMT 39.654827 -104.964294 9,475 169 268 -64
2019-01-22 00:07:23 GMT 39.660225 -104.965637 9,475 169 268 0
2019-01-22 00:07:20 GMT 39.664032 -104.966606 9,475 169 268 -128
2019-01-22 00:07:17 GMT 39.666458 -104.967201 9,475 169 268 0
2019-01-22 00:07:12 GMT 39.673279 -104.968872 9,475 169 268 -64
2019-01-22 00:07:09 GMT 39.677078 -104.969788 9,475 169 268 64
2019-01-22 00:07:06 GMT 39.679642 -104.970367 9,475 169 268 0
2019-01-22 00:07:02 GMT 39.686966 -104.972038 9,475 169 268 64
2019-01-22 00:06:59 GMT 39.689667 -104.972694 9,475 169 268 64
2019-01-22 00:06:56 GMT 39.692825 -104.973412 9,475 170 267 0
2019-01-22 00:06:52 GMT 39.699097 -104.974792 9,475 170 268 0
2019-01-22 00:06:46 GMT 39.705009 -104.976135 9,475 170 269 64
2019-01-22 00:06:40 GMT 39.712132 -104.977722 9,450 170 271 64
2019-01-22 00:06:35 GMT 39.718185 -104.979141 9,450 169 271 0
2019-01-22 00:06:30 GMT 39.725098 -104.980751 9,475 169 272 0
2019-01-22 00:06:26 GMT 39.730316 -104.982010 9,475 169 272 -64
2019-01-22 00:06:21 GMT 39.735809 -104.983261 9,475 169 273 0
2019-01-22 00:06:17 GMT 39.740295 -104.984337 9,475 169 273 -64
2019-01-22 00:06:14 GMT 39.744392 -104.985352 9,475 169 273 -64
2019-01-22 00:06:09 GMT 39.752354 -104.987305 9,475 169 273 0
2019-01-22 00:06:05 GMT 39.756821 -104.988403 9,475 169 272 64
2019-01-22 00:05:57 GMT 39.764877 -104.990364 9,475 169 269 0
2019-01-22 00:05:54 GMT 39.769272 -104.991440 9,475 169 268 0
2019-01-22 00:05:48 GMT 39.777328 -104.993408 9,475 169 266 0
2019-01-22 00:05:43 GMT 39.782684 -104.994728 9,475 169 266 0
2019-01-22 00:05:37 GMT 39.790192 -104.996460 9,475 169 266 0
2019-01-22 00:05:33 GMT 39.794903 -104.997559 9,475 170 265 0
2019-01-22 00:05:27 GMT 39.802910 -104.999329 9,450 170 265 64
2019-01-22 00:05:23 GMT 39.807404 -105.000282 9,450 170 265 0
2019-01-22 00:05:19 GMT 39.811066 -105.001114 9,450 170 265 64
2019-01-22 00:05:15 GMT 39.817245 -105.002441 9,450 170 266 0
2019-01-22 00:05:12 GMT 39.820816 -105.003265 9,450 169 267 0
2019-01-22 00:05:06 GMT 39.828232 -105.005005 9,450 169 268 -64
2019-01-22 00:05:03 GMT 39.831528 -105.005775 9,450 169 268 64
2019-01-22 00:05:00 GMT 39.833954 -105.006371 9,450 169 268 0
2019-01-22 00:04:55 GMT 39.841324 -105.008163 9,475 169 268 -128
2019-01-22 00:04:52 GMT 39.844986 -105.009117 9,475 168 269 -128
2019-01-22 00:04:49 GMT 39.848019 -105.009888 9,475 169 268 0
2019-01-22 00:04:45 GMT 39.854279 -105.011444 9,475 169 269 128
2019-01-22 00:04:40 GMT 39.860641 -105.013000 9,475 169 269 64
2019-01-22 00:04:35 GMT 39.865814 -105.014252 9,475 168 271 -64
2019-01-22 00:04:32 GMT 39.873962 -105.016342 9,475 168 271 -128
2019-01-22 00:04:29 GMT 39.873962 -105.016342 9,475 168 272 -128
2019-01-22 00:04:24 GMT 39.880371 -105.018013 9,475 168 272 64
2019-01-22 00:04:18 GMT 39.887512 -105.019981 9,475 167 273 -64
2019-01-22 00:04:13 GMT 39.891869 -105.021179 9,475 167 273 128
2019-01-22 00:04:10 GMT 39.895660 -105.022247 9,450 168 272 192
2019-01-22 00:04:07 GMT 39.900146 -105.023506 9,450 168 272 192
2019-01-22 00:04:03 GMT 39.906281 -105.025116 9,450 168 272 -64
2019-01-22 00:03:58 GMT 39.911888 -105.026611 9,475 168 273 0
2019-01-22 00:03:55 GMT 39.915100 -105.027466 9,450 168 273 0
2019-01-22 00:03:50 GMT 39.921204 -105.029060 9,475 168 275 128
2019-01-22 00:03:46 GMT 39.927296 -105.030731 9,475 168 276 128
2019-01-22 00:03:42 GMT 39.932323 -105.032043 9,450 168 276 -64
2019-01-22 00:03:35 GMT 39.940475 -105.034302 9,475 167 278 0
2019-01-22 00:03:30 GMT 39.946148 -105.035912 9,475 167 277 0
2019-01-22 00:03:24 GMT 39.953796 -105.038147 9,475 167 276 64
2019-01-22 00:03:18 GMT 39.961304 -105.040283 9,450 167 274 64
2019-01-22 00:03:13 GMT 39.967144 -105.042030 9,450 167 273 0
2019-01-22 00:03:07 GMT 39.974167 -105.044067 9,475 167 271 0
2019-01-22 00:03:03 GMT 39.980923 -105.046028 9,475 167 271 -64
2019-01-22 00:02:58 GMT 39.986603 -105.047646 9,475 167 271 64
2019-01-22 00:02:54 GMT 39.991722 -105.049149 9,475 167 272 64
2019-01-22 00:02:51 GMT 39.994190 -105.049896 9,475 167 272 64
2019-01-22 00:02:46 GMT 39.999756 -105.051514 9,475 167 272 0
2019-01-22 00:02:42 GMT 40.005318 -105.053139 9,450 167 273 0
2019-01-22 00:02:36 GMT 40.012718 -105.055328 9,475 167 274 -128
2019-01-22 00:02:31 GMT 40.020813 -105.057617 9,475 169 273 -64
2019-01-22 00:02:22 GMT 40.031067 -105.059509 9,475 181 270 0
2019-01-22 00:02:19 GMT 40.035553 -105.059448 9,475 185 267 64
2019-01-22 00:02:12 GMT 40.042831 -105.057800 9,475 197 261 64
2019-01-22 00:02:09 GMT 40.047226 -105.056091 9,475 198 261 128
2019-01-22 00:02:00 GMT 40.056656 -105.052185 9,475 198 259 0
2019-01-22 00:01:56 GMT 40.062607 -105.049683 9,475 199 257 -192
2019-01-22 00:01:50 GMT 40.068398 -105.047211 9,475 199 256 -128
2019-01-22 00:01:46 GMT 40.071899 -105.045715 9,500 200 255 0
2019-01-22 00:01:39 GMT 40.080315 -105.041466 9,475 207 249 192
2019-01-22 00:01:36 GMT 40.083664 -105.039124 9,450 217 244 0
2019-01-22 00:01:32 GMT 40.086552 -105.036537 9,450 219 244 0
2019-01-22 00:01:28 GMT 40.090229 -105.032234 9,475 228 242 0
2019-01-22 00:01:24 GMT 40.092834 -105.028175 9,475 236 241 0
2019-01-22 00:01:21 GMT 40.094742 -105.024109 9,450 243 241 64
2019-01-22 00:01:18 GMT 40.096512 -105.018936 9,450 254 239 -64
2019-01-22 00:01:15 GMT 40.097443 -105.014755 9,450 261 240 0
2019-01-22 00:01:11 GMT 40.098003 -105.010445 9,475 267 240 0
2019-01-22 00:01:07 GMT 40.098190 -105.004082 9,475 278 242 64
2019-01-22 00:01:04 GMT 40.097717 -104.999329 9,475 291 245 0
2019-01-22 00:01:01 GMT 40.097260 -104.996590 9,450 295 246 0
2019-01-22 00:00:57 GMT 40.095024 -104.988846 9,475 300 248 -64
2019-01-22 00:00:51 GMT 40.091675 -104.981873 9,475 308 251 -128
2019-01-22 00:00:45 GMT 40.086319 -104.974915 9,475 321 256 0
2019-01-22 00:00:41 GMT 40.082794 -104.971741 9,475 332 261 0
2019-01-22 00:00:33 GMT 40.074635 -104.966438 9,475 337 263 0
2019-01-22 00:00:30 GMT 40.070816 -104.964256 9,475 336 264 0
2019-01-22 00:00:23 GMT 40.062157 -104.959068 9,450 335 264 -64
2019-01-22 00:00:20 GMT 40.060574 -104.958138 9,450 335 265 64
2019-01-22 00:00:13 GMT 40.052799 -104.953331 9,475 334 262 0
2019-01-22 00:00:10 GMT 40.048737 -104.950745 9,475 334 265 -64
2019-01-22 00:00:06 GMT 40.044235 -104.947838 9,475 334 263 -64
2019-01-22 00:00:03 GMT 40.041275 -104.945923 9,475 334 263 0
2019-01-21 23:59:59 GMT 40.036011 -104.942505 9,475 334 262 0
2019-01-21 23:59:55 GMT 40.032120 -104.939941 9,475 334 262 0
2019-01-21 23:59:52 GMT 40.024220 -104.934792 9,475 334 261 0
2019-01-21 23:59:48 GMT 40.024220 -104.934792 9,450 14 259 -256
2019-01-21 23:59:44 GMT 40.019238 -104.931671 9,450 335 258 0
2019-01-21 23:59:41 GMT 40.018166 -104.930984 9,450 335 258 0
2019-01-21 23:59:37 GMT 40.012768 -104.927612 9,450 336 256 64
2019-01-21 23:59:34 GMT 40.009506 -104.925674 9,450 338 255 128
2019-01-21 23:59:30 GMT 40.006348 -104.923950 9,450 340 255 64
2019-01-21 23:59:24 GMT 39.997192 -104.920837 9,425 356 255 64
2019-01-21 23:59:21 GMT 39.994354 -104.920593 9,425 1 256 -64
2019-01-21 23:59:18 GMT 39.991516 -104.920654 9,425 3 256 -64
2019-01-21 23:59:15 GMT 39.987862 -104.921181 9,450 12 257 -256
2019-01-21 23:59:08 GMT 39.979294 -104.924866 9,475 28 267 -192
2019-01-21 23:59:04 GMT 39.975475 -104.927612 9,475 34 271 0
2019-01-21 23:59:00 GMT 39.970779 -104.932312 9,475 43 277 256
2019-01-21 23:58:54 GMT 39.965149 -104.940247 9,475 56 285 -64
2019-01-21 23:58:49 GMT 39.962494 -104.945801 9,475 65 289 64
2019-01-21 23:58:46 GMT 39.960163 -104.952271 9,450 71 290 64
2019-01-21 23:58:43 GMT 39.958813 -104.957199 9,475 72 290 0
2019-01-21 23:58:38 GMT 39.956360 -104.968140 9,450 74 290 64
2019-01-21 23:58:32 GMT 39.954903 -104.974678 9,450 74 290 -128
2019-01-21 23:58:27 GMT 39.952854 -104.984039 9,475 73 288 -64
2019-01-21 23:58:24 GMT 39.951736 -104.989037 9,475 73 288 -128
2019-01-21 23:58:21 GMT 39.950638 -104.993896 9,475 74 287 -128
2019-01-21 23:58:15 GMT 39.948711 -105.003082 9,475 75 287 0
2019-01-21 23:58:10 GMT 39.947159 -105.011292 9,475 80 287 128
2019-01-21 23:58:06 GMT 39.946381 -105.017456 9,475 87 289 -64
2019-01-21 23:58:03 GMT 39.946106 -105.024353 9,475 96 290 128
2019-01-21 23:57:59 GMT 39.946381 -105.030106 9,475 98 289 64
2019-01-21 23:57:53 GMT 39.951004 -105.049561 9,475 105 291 0
2019-01-21 23:57:46 GMT 39.952332 -105.052612 9,500 125 287 -128
2019-01-21 23:57:37 GMT 39.961899 -105.066772 9,475 143 281 128
2019-01-21 23:57:34 GMT 39.971802 -105.074242 9,475 154 276 64
2019-01-21 23:57:26 GMT 39.971802 -105.074242 9,475 159 274 128
2019-01-21 23:57:23 GMT 39.985062 -105.078979 9,475 167 271 128
2019-01-21 23:57:15 GMT 39.985062 -105.078979 9,450 167 272 64
2019-01-21 23:57:12 GMT 39.987534 -105.079712 9,450 167 272 64
2019-01-21 23:57:02 GMT 40.001266 -105.083862 9,450 166 272 -64
2019-01-21 23:56:51 GMT 40.014496 -105.088013 9,450 166 270 64
2019-01-21 23:56:40 GMT 40.037998 -105.095215 9,475 166 270 -64
2019-01-21 23:56:32 GMT 40.037998 -105.095215 9,475 168 270 -64
2019-01-21 23:56:29 GMT 40.041676 -105.096275 9,475 169 270 -64
2019-01-21 23:56:19 GMT 40.053780 -105.097961 9,500 185 264 -128
2019-01-21 23:56:08 GMT 40.066360 -105.094360 9,500 203 257 128
2019-01-21 23:55:59 GMT 40.075470 -105.086670 9,475 226 252 64
2019-01-21 23:55:49 GMT 40.082382 -105.074707 9,475 245 247 64
2019-01-21 23:55:46 GMT 40.083481 -105.071716 9,475 251 246 -64
2019-01-21 23:55:38 GMT 40.085678 -105.060608 9,475 262 243 192
2019-01-21 23:55:35 GMT 40.086273 -105.055763 9,475 262 243 192
2019-01-21 23:55:28 GMT 40.087574 -105.044151 9,475 262 243 -64
2019-01-21 23:55:25 GMT 40.088013 -105.040527 9,450 262 243 64
2019-01-21 23:55:20 GMT 40.088924 -105.032852 9,450 262 242 64
2019-01-21 23:55:14 GMT 40.089855 -105.024742 9,450 262 242 64
2019-01-21 23:55:10 GMT 40.090462 -105.019180 9,450 262 242 -64
2019-01-21 23:55:06 GMT 40.091068 -105.013695 9,450 263 242 -64
2019-01-21 23:55:03 GMT 40.091583 -105.008606 9,450 264 242 -128
2019-01-21 23:54:56 GMT 40.092407 -104.998169 9,475 266 241 -128
2019-01-21 23:54:51 GMT 40.092590 -104.992371 9,475 274 241 -64
2019-01-21 23:54:44 GMT 40.091438 -104.982109 9,475 289 243 64
2019-01-21 23:54:41 GMT 40.090210 -104.977539 9,475 296 244 64
2019-01-21 23:54:34 GMT 40.086040 -104.968559 9,475 319 252 64
2019-01-21 23:54:30 GMT 40.083160 -104.964417 9,475 319 252 64
2019-01-21 23:54:27 GMT 40.080406 -104.961380 9,475 324 255 -64
2019-01-21 23:54:22 GMT 40.075470 -104.957336 9,475 332 257 -64
2019-01-21 23:54:19 GMT 40.072308 -104.955513 9,475 340 257 64
2019-01-21 23:54:13 GMT 40.062241 -104.951233 9,450 344 255 128
2019-01-21 23:54:10 GMT 40.057480 -104.949402 9,450 344 255 128
2019-01-21 23:54:07 GMT 40.057480 -104.949402 9,450 344 254 -128
2019-01-21 23:54:02 GMT 40.052849 -104.947586 9,450 344 253 -64
2019-01-21 23:53:59 GMT 40.049915 -104.946465 9,450 344 254 64
2019-01-21 23:53:55 GMT 40.045166 -104.944588 9,450 344 255 -64
2019-01-21 23:53:51 GMT 40.039627 -104.942444 9,450 344 258 64
2019-01-21 23:53:46 GMT 40.033859 -104.940186 9,450 344 261 -64
2019-01-21 23:53:40 GMT 40.026672 -104.937378 9,475 343 264 -128
2019-01-21 23:53:34 GMT 40.020584 -104.934937 9,475 343 266 64
2019-01-21 23:53:30 GMT 40.015640 -104.932861 9,475 343 268 64
2019-01-21 23:53:25 GMT 40.010193 -104.930664 9,475 343 268 0
2019-01-21 23:53:18 GMT 40.000946 -104.926941 9,475 344 265 64
2019-01-21 23:53:15 GMT 39.995216 -104.924675 9,450 344 263 64
2019-01-21 23:53:07 GMT 39.988541 -104.922180 9,450 345 260 64
2019-01-21 23:53:03 GMT 39.984329 -104.920654 9,450 345 259 0
2019-01-21 23:52:57 GMT 39.976826 -104.917999 9,450 346 256 -64
2019-01-21 23:52:52 GMT 39.971466 -104.916260 9,450 350 252 0
2019-01-21 23:52:46 GMT 39.964958 -104.914375 9,475 350 252 0
2019-01-21 23:52:41 GMT 39.959602 -104.913315 9,450 357 254 64
2019-01-21 23:52:32 GMT 39.947544 -104.914818 9,475 16 264 0
2019-01-21 23:52:25 GMT 39.940109 -104.918823 9,475 31 274 64
2019-01-21 23:52:20 GMT 39.935806 -104.922302 9,475 34 277 64
2019-01-21 23:52:15 GMT 39.928436 -104.929138 9,475 36 279 -64
2019-01-21 23:52:10 GMT 39.924454 -104.932922 9,475 36 280 0
2019-01-21 23:52:03 GMT 39.917660 -104.939453 9,475 36 279 0
2019-01-21 23:52:00 GMT 39.913517 -104.943481 9,475 36 278 64
2019-01-21 23:51:52 GMT 39.904312 -104.952271 9,475 36 276 -128
2019-01-21 23:51:49 GMT 39.902390 -104.954102 9,475 36 273 -64
2019-01-21 23:51:42 GMT 39.895157 -104.960991 9,475 37 270 128
2019-01-21 23:51:38 GMT 39.891769 -104.964333 9,450 39 269 128
2019-01-21 23:51:33 GMT 39.886421 -104.970398 9,450 46 270 64
2019-01-21 23:51:30 GMT 39.884628 -104.972931 9,450 50 271 64
2019-01-21 23:51:26 GMT 39.881721 -104.978027 9,450 58 274 -64
2019-01-21 23:51:21 GMT 39.878128 -104.987381 9,450 73 279 -128
2019-01-21 23:51:17 GMT 39.876526 -104.994125 9,475 79 281 -64
2019-01-21 23:51:10 GMT 39.875565 -105.004219 9,475 90 288 -128
2019-01-21 23:51:06 GMT 39.875885 -105.012581 9,475 97 291 64
2019-01-21 23:50:59 GMT 39.877857 -105.023682 9,500 108 292 -192
2019-01-21 23:50:55 GMT 39.880005 -105.030312 9,500 120 290 64
2019-01-21 23:50:51 GMT 39.882523 -105.036102 9,500 124 288 256
2019-01-21 23:50:44 GMT 39.888336 -105.045479 9,475 137 282 256
2019-01-21 23:50:39 GMT 39.894424 -105.051804 9,450 146 279 256
2019-01-21 23:50:36 GMT 39.896851 -105.053658 9,425 154 275 192
2019-01-21 23:50:33 GMT 39.899921 -105.055664 9,425 157 274 192
2019-01-21 23:50:28 GMT 39.905777 -105.058372 9,425 166 270 -64
2019-01-21 23:50:23 GMT 39.912956 -105.060486 9,425 169 270 0
2019-01-21 23:50:17 GMT 39.918636 -105.061890 9,450 168 272 -192
2019-01-21 23:50:14 GMT 39.924225 -105.063354 9,450 168 273 192
2019-01-21 23:50:11 GMT 39.926193 -105.063843 9,450 168 273 192
2019-01-21 23:50:07 GMT 39.931412 -105.065308 9,450 167 274 -64
2019-01-21 23:50:01 GMT 39.939331 -105.067688 9,450 167 273 64
2019-01-21 23:49:57 GMT 39.944275 -105.069153 9,450 166 272 64
2019-01-21 23:49:50 GMT 39.952332 -105.071594 9,450 167 268 -128
2019-01-21 23:49:43 GMT 39.961140 -105.074181 9,450 167 268 -64
2019-01-21 23:49:39 GMT 39.965652 -105.075500 9,450 167 269 -128
2019-01-21 23:49:35 GMT 39.970276 -105.076843 9,450 167 270 -192
2019-01-21 23:49:32 GMT 39.975403 -105.078308 9,475 168 270 -128
2019-01-21 23:49:29 GMT 39.979111 -105.079285 9,475 169 271 -64
2019-01-21 23:49:21 GMT 39.988651 -105.080482 9,475 187 266 0
2019-01-21 23:49:17 GMT 39.992477 -105.080078 9,475 189 265 128
2019-01-21 23:49:12 GMT 39.998016 -105.078674 9,475 196 263 192
2019-01-21 23:49:08 GMT 40.004471 -105.075256 9,450 211 254 64
2019-01-21 23:49:05 GMT 40.007492 -105.072937 9,450 217 251 128
2019-01-21 23:49:00 GMT 40.010971 -105.069336 9,450 228 247 128
2019-01-21 23:48:57 GMT 40.014404 -105.064575 9,425 232 247 -64
2019-01-21 23:48:54 GMT 40.015697 -105.062317 9,450 239 247 -192
2019-01-21 23:48:46 GMT 40.019890 -105.050461 9,450 256 247 -128
2019-01-21 23:48:41 GMT 40.020958 -105.042526 9,450 280 248 128
2019-01-21 23:48:35 GMT 40.020821 -105.035042 9,450 278 247 128
2019-01-21 23:48:29 GMT 40.019897 -105.027344 9,450 282 249 64
2019-01-21 23:48:26 GMT 40.019165 -105.022827 9,450 282 249 64
2019-01-21 23:48:23 GMT 40.018539 -105.018501 9,450 282 250 0
2019-01-21 23:48:17 GMT 40.016922 -105.007690 9,450 281 251 -64
2019-01-21 23:48:14 GMT 40.016258 -105.003082 9,450 281 252 0
2019-01-21 23:48:10 GMT 40.015511 -104.998024 9,450 281 255 0
2019-01-21 23:48:05 GMT 40.014301 -104.989845 9,450 282 257 0
2019-01-21 23:48:02 GMT 40.013744 -104.986473 9,450 283 258 0
2019-01-21 23:47:53 GMT 40.009369 -104.967163 9,450 295 260 128
2019-01-21 23:47:50 GMT 40.009369 -104.967163 9,450 303 261 64
2019-01-21 23:47:44 GMT 40.006027 -104.959900 9,450 312 261 64
2019-01-21 23:47:40 GMT 40.002274 -104.954529 9,450 318 261 -64
2019-01-21 23:47:37 GMT 40.000381 -104.952393 9,450 322 261 -64
2019-01-21 23:47:34 GMT 39.996918 -104.949158 9,450 331 262 0
2019-01-21 23:47:31 GMT 39.994400 -104.947266 9,450 333 261 -64
2019-01-21 23:47:28 GMT 39.989456 -104.943848 9,450 333 261 0
2019-01-21 23:47:19 GMT 39.980320 -104.937782 9,450 334 259 64
2019-01-21 23:47:10 GMT 39.968960 -104.930420 9,450 335 255 64
2019-01-21 23:47:02 GMT 39.962219 -104.926270 9,450 336 253 0
2019-01-21 23:46:57 GMT 39.957832 -104.923744 9,450 338 251 -64
2019-01-21 23:46:50 GMT 39.950546 -104.920227 9,425 348 251 64
2019-01-21 23:46:46 GMT 39.945404 -104.918869 9,425 358 255 -128
2019-01-21 23:46:40 GMT 39.938644 -104.918823 9,450 4 257 -64
2019-01-21 23:46:36 GMT 39.931732 -104.919617 9,450 5 259 0
2019-01-21 23:46:30 GMT 39.925735 -104.920471 9,450 5 260 0
2019-01-21 23:46:27 GMT 39.922779 -104.920868 9,450 5 260 64
2019-01-21 23:46:24 GMT 39.919739 -104.921227 9,450 5 261 64
2019-01-21 23:46:17 GMT 39.909512 -104.922546 9,450 5 262 64
2019-01-21 23:46:14 GMT 39.907558 -104.922791 9,450 5 263 64
2019-01-21 23:46:07 GMT 39.898956 -104.923737 9,450 4 262 -64
2019-01-21 23:46:04 GMT 39.894104 -104.924210 9,450 4 262 0
2019-01-21 23:46:00 GMT 39.889252 -104.924690 9,450 4 263 64
2019-01-21 23:45:56 GMT 39.885635 -104.925049 9,450 4 260 64
2019-01-21 23:45:53 GMT 39.880695 -104.925537 9,450 4 260 64
2019-01-21 23:45:48 GMT 39.876480 -104.925941 9,450 4 263 64
2019-01-21 23:45:45 GMT 39.872360 -104.926300 9,450 4 263 -64
2019-01-21 23:45:42 GMT 39.867847 -104.926758 9,450 4 266 -128
2019-01-21 23:45:36 GMT 39.860447 -104.927490 9,450 4 270 0
2019-01-21 23:45:31 GMT 39.854279 -104.928093 9,425 4 275 512
2019-01-21 23:45:25 GMT 39.846992 -104.928894 9,400 4 275 -128
2019-01-21 23:45:20 GMT 39.840660 -104.929504 9,450 3 274 -512
2019-01-21 23:45:15 GMT 39.833405 -104.930244 9,450 4 276 448
2019-01-21 23:45:09 GMT 39.826603 -104.930908 9,425 4 277 -128
2019-01-21 23:45:05 GMT 39.822098 -104.931313 9,450 4 278 -128
2019-01-21 23:45:02 GMT 39.812916 -104.932129 9,450 3 280 -64
2019-01-21 23:44:59 GMT 39.812916 -104.932129 9,450 3 281 -192
2019-01-21 23:44:55 GMT 39.808365 -104.932510 9,475 3 281 0
2019-01-21 23:44:52 GMT 39.804474 -104.932747 9,475 3 281 0
2019-01-21 23:44:48 GMT 39.795868 -104.933403 9,475 3 280 0
2019-01-21 23:44:45 GMT 39.790573 -104.933838 9,475 3 280 0
2019-01-21 23:44:42 GMT 39.790573 -104.933838 9,475 3 280 64
2019-01-21 23:44:38 GMT 39.786430 -104.934143 9,450 3 280 64
2019-01-21 23:44:35 GMT 39.781082 -104.934540 9,450 3 280 64
2019-01-21 23:44:32 GMT 39.778473 -104.934715 9,450 3 281 0
2019-01-21 23:44:28 GMT 39.772797 -104.935135 9,450 3 281 -64
2019-01-21 23:44:24 GMT 39.767948 -104.935486 9,450 2 281 0
2019-01-21 23:44:21 GMT 39.764828 -104.935669 9,450 2 281 0
2019-01-21 23:44:18 GMT 39.759102 -104.936035 9,450 2 281 64
2019-01-21 23:44:15 GMT 39.756363 -104.936150 9,425 2 281 64
2019-01-21 23:44:12 GMT 39.752865 -104.936340 9,425 2 281 64
2019-01-21 23:44:09 GMT 39.748810 -104.936508 9,450 2 280 -64
2019-01-21 23:44:06 GMT 39.744301 -104.936707 9,425 2 280 -64
2019-01-21 23:44:03 GMT 39.740799 -104.936867 9,425 2 280 64
2019-01-21 23:44:00 GMT 39.736244 -104.937073 9,425 2 280 0
2019-01-21 23:43:55 GMT 39.731689 -104.937347 9,425 2 281 -128
2019-01-21 23:43:52 GMT 39.727169 -104.937561 9,450 2 283 -192
2019-01-21 23:43:49 GMT 39.722305 -104.937881 9,450 2 284 -192
2019-01-21 23:43:45 GMT 39.717159 -104.938232 9,475 3 285 -64
2019-01-21 23:43:42 GMT 39.713058 -104.938599 9,450 5 286 128
2019-01-21 23:43:39 GMT 39.708572 -104.939194 9,450 9 286 256
2019-01-21 23:43:34 GMT 39.703629 -104.940392 9,425 15 285 256
2019-01-21 23:43:31 GMT 39.699097 -104.942245 9,425 22 286 64
2019-01-21 23:43:27 GMT 39.694160 -104.945190 9,425 32 288 0
2019-01-21 23:43:24 GMT 39.690998 -104.947754 9,425 36 288 -64
2019-01-21 23:43:19 GMT 39.685272 -104.953918 9,425 44 288 -320
2019-01-21 23:43:16 GMT 39.683853 -104.955856 9,450 51 290 -320
2019-01-21 23:43:13 GMT 39.680943 -104.960632 9,475 65 297 -384
2019-01-21 23:43:10 GMT 39.678333 -104.965942 9,475 63 296 -256
2019-01-21 23:43:07 GMT 39.676472 -104.971130 9,500 68 299 -576
2019-01-21 23:43:03 GMT 39.674564 -104.978638 9,550 80 301 -1024
2019-01-21 23:43:00 GMT 39.673874 -104.983025 9,600 82 300 -1088
2019-01-21 23:42:56 GMT 39.673325 -104.990250 9,650 87 302 -1152
2019-01-21 23:42:53 GMT 39.673401 -104.995850 9,750 94 302 -1216
2019-01-21 23:42:49 GMT 39.673920 -105.002548 9,875 98 301 -1216
2019-01-21 23:42:45 GMT 39.674744 -105.009651 9,900 99 301 -1152
2019-01-21 23:42:42 GMT 39.675751 -105.017113 10,000 99 300 -1216
2019-01-21 23:42:38 GMT 39.676346 -105.021774 10,025 99 298 -1152
2019-01-21 23:42:34 GMT 39.677170 -105.028259 10,125 99 297 -1152
2019-01-21 23:42:30 GMT 39.677963 -105.034973 10,175 99 297 -1088
2019-01-21 23:42:27 GMT 39.678661 -105.040588 10,225 98 296 -1024
2019-01-21 23:42:24 GMT 39.679592 -105.048340 10,300 99 296 -832
2019-01-21 23:42:21 GMT 39.680290 -105.053589 10,350 99 296 -832
2019-01-21 23:42:18 GMT 39.680710 -105.057129 10,375 99 295 -768
2019-01-21 23:42:14 GMT 39.681610 -105.064224 10,400 99 292 -512
2019-01-21 23:42:11 GMT 39.682480 -105.070984 10,450 100 290 -448
2019-01-21 23:42:08 GMT 39.683037 -105.075134 10,450 100 290 -448
2019-01-21 23:42:05 GMT 39.683899 -105.081123 10,475 100 293 -192
2019-01-21 23:42:02 GMT 39.684402 -105.084587 10,475 100 295 0
2019-01-21 23:41:57 GMT 39.685684 -105.093307 10,475 101 298 -128
2019-01-21 23:41:54 GMT 39.686783 -105.100288 10,500 101 299 -192
2019-01-21 23:41:51 GMT 39.687366 -105.104004 10,500 102 298 64
2019-01-21 23:41:47 GMT 39.689438 -105.116051 10,475 103 298 64
2019-01-21 23:41:44 GMT 39.689438 -105.116051 10,475 122 295 -64
2019-01-21 23:41:41 GMT 39.690811 -105.122375 10,475 107 295 -128
2019-01-21 23:41:38 GMT 39.692184 -105.127579 10,475 113 295 -64
2019-01-21 23:41:32 GMT 39.695744 -105.136902 10,475 122 295 -64
2019-01-21 23:41:29 GMT 39.697357 -105.140053 10,500 126 296 -384
2019-01-21 23:41:26 GMT 39.700169 -105.144653 10,525 133 299 -832
2019-01-21 23:41:22 GMT 39.703949 -105.149666 10,625 139 304 -1280
2019-01-21 23:41:19 GMT 39.710861 -105.157310 10,700 140 308 -1664
2019-01-21 23:41:16 GMT 39.710861 -105.157310 10,750 140 309 -1728
2019-01-21 23:41:12 GMT 39.715809 -105.162659 10,875 139 312 -1664
2019-01-21 23:41:09 GMT 39.719112 -105.166260 10,950 139 313 -1728
2019-01-21 23:41:04 GMT 39.723118 -105.170654 11,050 139 315 -1728
2019-01-21 23:41:01 GMT 39.727661 -105.175705 11,175 139 317 -1728
2019-01-21 23:40:57 GMT 39.735409 -105.184326 11,400 139 320 -1856
2019-01-21 23:40:50 GMT 39.739975 -105.189491 11,525 138 321 -2368
2019-01-21 23:40:46 GMT 39.744114 -105.194275 11,675 138 323 -2304
2019-01-21 23:40:43 GMT 39.752060 -105.203346 11,975 138 324 -2240
2019-01-21 23:40:39 GMT 39.752060 -105.203346 11,950 138 324 -2240
2019-01-21 23:40:36 GMT 39.756264 -105.208130 12,075 138 325 -2240
2019-01-21 23:40:28 GMT 39.763824 -105.216782 12,350 138 327 -2304
2019-01-21 23:40:25 GMT 39.767899 -105.221497 12,475 138 328 -2304
2019-01-21 23:40:21 GMT 39.772705 -105.226990 12,625 138 329 -2304
2019-01-21 23:40:17 GMT 39.776642 -105.231407 12,775 138 330 -2240
2019-01-21 23:40:14 GMT 39.780190 -105.235413 12,875 138 330 -2304
2019-01-21 23:40:10 GMT 39.785030 -105.240906 13,100 138 331 -2368
2019-01-21 23:40:07 GMT 39.788940 -105.245361 13,175 138 331 -2496
2019-01-21 23:40:04 GMT 39.792526 -105.249443 13,300 138 331 -2496
2019-01-21 23:40:01 GMT 39.796345 -105.253784 13,450 138 331 -2496
2019-01-21 23:39:56 GMT 39.801315 -105.259354 13,625 139 331 -2432
2019-01-21 23:39:53 GMT 39.804337 -105.262756 13,725 139 331 -2432
2019-01-21 23:39:47 GMT 39.811382 -105.270691 13,975 138 330 -2496
2019-01-21 23:39:43 GMT 39.816921 -105.276978 14,175 138 330 -2432
2019-01-21 23:39:37 GMT 39.823929 -105.284966 14,425 138 329 -2432
2019-01-21 23:39:33 GMT 39.826790 -105.288208 14,525 138 330 -2432
2019-01-21 23:39:29 GMT 39.831398 -105.293457 14,675 138 330 -2432
2019-01-21 23:39:24 GMT 39.839451 -105.302551 14,950 138 331 -2432
2019-01-21 23:39:21 GMT 39.848419 -105.312614 15,100 138 331 -2496
2019-01-21 23:39:16 GMT 39.848419 -105.312614 15,275 139 332 -2624
2019-01-21 23:39:11 GMT 39.854095 -105.319061 15,500 139 333 -2624
2019-01-21 23:39:02 GMT 39.864029 -105.330170 15,950 139 333 -2560
2019-01-21 23:38:59 GMT 39.866638 -105.333031 15,975 139 333 -2560
2019-01-21 23:38:55 GMT 39.872498 -105.339539 16,175 139 335 -2496
2019-01-21 23:38:49 GMT 39.878464 -105.346252 16,350 138 335 -2112
2019-01-21 23:38:44 GMT 39.884560 -105.353210 16,550 138 338 -1856
2019-01-21 23:38:39 GMT 39.891495 -105.361153 16,700 138 339 -1664
2019-01-21 23:38:33 GMT 39.897354 -105.367966 16,850 138 339 -1408
2019-01-21 23:38:27 GMT 39.903946 -105.375603 16,950 138 339 -1024
2019-01-21 23:38:22 GMT 39.910583 -105.383362 17,050 138 339 -960
2019-01-21 23:38:16 GMT 39.916451 -105.390198 17,125 138 339 -960
2019-01-21 23:38:13 GMT 39.921661 -105.396118 17,250 140 337 -896
2019-01-21 23:38:07 GMT 39.929066 -105.403580 17,275 148 332 -960
2019-01-21 23:38:01 GMT 39.935806 -105.408630 17,450 168 318 -320
2019-01-21 23:37:56 GMT 39.943909 -105.412781 17,425 165 320 -576
2019-01-21 23:37:51 GMT 39.951141 -105.414917 17,450 172 317 -64
2019-01-21 23:37:45 GMT 39.959183 -105.415688 17,450 183 315 -128
2019-01-21 23:37:40 GMT 39.967438 -105.414612 17,475 192 313 -320
2019-01-21 23:37:33 GMT 39.974991 -105.411987 17,500 199 312 -384
2019-01-21 23:37:29 GMT 39.980877 -105.408577 17,550 214 309 -384
2019-01-21 23:37:24 GMT 39.988220 -105.402344 17,575 222 309 -320
2019-01-21 23:37:20 GMT 39.995029 -105.393593 17,625 232 308 -320
2019-01-21 23:37:13 GMT 39.998428 -105.387451 17,625 239 307 -256
2019-01-21 23:37:08 GMT 40.001266 -105.380798 17,650 250 307 -128
2019-01-21 23:37:05 GMT 40.003269 -105.374245 17,575 253 307 64
2019-01-21 23:37:02 GMT 40.004379 -105.369446 17,650 258 307 128
2019-01-21 23:36:59 GMT 40.005363 -105.363129 17,625 262 306 448
2019-01-21 23:36:51 GMT 40.006760 -105.349648 17,575 263 303 192
2019-01-21 23:36:48 GMT 40.007320 -105.343468 17,550 263 299 512
2019-01-21 23:36:44 GMT 40.008064 -105.335976 17,475 263 298 640
2019-01-21 23:36:41 GMT 40.008575 -105.330612 17,475 263 297 896
2019-01-21 23:36:35 GMT 40.009415 -105.322121 17,250 263 297 0
2019-01-21 23:36:30 GMT 40.010468 -105.311646 17,150 263 298 1792
2019-01-21 23:36:26 GMT 40.010998 -105.306076 17,075 263 299 1024
2019-01-21 23:36:23 GMT 40.011696 -105.298958 17,025 263 299 960
2019-01-21 23:36:19 GMT 40.013138 -105.284668 16,850 264 298 1856
2019-01-21 23:36:14 GMT 40.013138 -105.284668 16,850 263 298 1344
2019-01-21 23:36:11 GMT 40.013718 -105.278809 16,775 263 298 1344
2019-01-21 23:36:07 GMT 40.014347 -105.272560 16,700 263 297 1152
2019-01-21 23:36:02 GMT 40.016144 -105.254700 16,425 263 294 1920
2019-01-21 23:35:58 GMT 40.016144 -105.254700 16,500 263 294 1408
2019-01-21 23:35:55 GMT 40.016769 -105.248589 16,400 263 294 1984
2019-01-21 23:35:51 GMT 40.017326 -105.243279 15,950 263 296 2240
2019-01-21 23:35:46 GMT 40.018211 -105.235168 16,125 263 297 2112
2019-01-21 23:35:39 GMT 40.019531 -105.220703 15,950 264 298 1024
2019-01-21 23:35:36 GMT 40.019890 -105.216255 15,900 265 297 832
2019-01-21 23:35:33 GMT 40.020355 -105.210022 15,425 264 298 2304
2019-01-21 23:35:30 GMT 40.020721 -105.205383 15,800 265 296 1408
2019-01-21 23:35:27 GMT 40.021191 -105.199150 15,700 265 296 1728
2019-01-21 23:35:20 GMT 40.022217 -105.186729 15,475 264 298 2304
2019-01-21 23:35:15 GMT 40.022827 -105.179749 14,875 263 300 1728
2019-01-21 23:35:12 GMT 40.023376 -105.173645 15,225 264 299 2176
2019-01-21 23:35:08 GMT 40.023880 -105.167542 15,075 264 299 2304
2019-01-21 23:35:05 GMT 40.024544 -105.160194 14,875 263 300 2112
2019-01-21 23:35:02 GMT 40.025196 -105.153702 14,800 263 300 1856
2019-01-21 23:34:57 GMT 40.025799 -105.147278 14,700 263 300 1536
2019-01-21 23:34:53 GMT 40.026592 -105.138664 14,600 265 297 1344
2019-01-21 23:34:49 GMT 40.027039 -105.130981 14,500 269 295 1600
2019-01-21 23:34:45 GMT 40.027058 -105.125488 14,375 273 294 2240
2019-01-21 23:34:42 GMT 40.026592 -105.118439 14,200 279 294 3072
2019-01-21 23:34:38 GMT 40.025616 -105.111816 14,000 287 296 3072
2019-01-21 23:34:33 GMT 40.023705 -105.103951 13,775 293 299 2624
2019-01-21 23:34:30 GMT 40.022095 -105.099182 13,625 313 300 1984
2019-01-21 23:34:26 GMT 40.019989 -105.094116 13,550 303 300 1920
2019-01-21 23:34:23 GMT 40.016212 -105.087158 13,400 310 300 1920
2019-01-21 23:34:20 GMT 40.014313 -105.084229 13,325 312 299 2048
2019-01-21 23:34:17 GMT 40.010788 -105.079102 13,200 313 300 1984
2019-01-21 23:34:12 GMT 40.006203 -105.072617 13,050 313 297 2112
2019-01-21 23:34:09 GMT 40.004341 -105.070000 12,925 313 297 2112
2019-01-21 23:34:06 GMT 40.001362 -105.065750 12,850 313 297 2240
2019-01-21 23:34:01 GMT 39.995914 -105.058136 12,650 313 297 2240
2019-01-21 23:33:56 GMT 39.991211 -105.051582 12,450 313 297 2432
2019-01-21 23:33:48 GMT 39.983643 -105.040955 12,100 313 297 2432
2019-01-21 23:33:44 GMT 39.981110 -105.037415 12,000 313 297 2432
2019-01-21 23:33:39 GMT 39.975586 -105.029602 11,775 313 297 2432
2019-01-21 23:33:35 GMT 39.971466 -105.023804 11,600 313 297 2304
2019-01-21 23:33:26 GMT 39.963089 -105.011963 11,275 313 296 2112
2019-01-21 23:33:17 GMT 39.955353 -105.000854 10,975 312 298 2048
2019-01-21 23:33:13 GMT 39.952293 -104.996399 10,850 311 299 1984
2019-01-21 23:33:07 GMT 39.947311 -104.988724 10,700 308 298 1344
2019-01-21 23:33:04 GMT 39.944321 -104.983398 10,575 302 297 1024
2019-01-21 23:33:01 GMT 39.942471 -104.979607 10,575 302 297 1024
2019-01-21 23:32:57 GMT 39.939541 -104.972679 10,525 296 297 448
2019-01-21 23:32:54 GMT 39.936356 -104.964111 10,525 298 297 192
2019-01-21 23:32:47 GMT 39.933113 -104.955643 10,475 298 297 256
2019-01-21 23:32:42 GMT 39.929901 -104.947708 10,475 299 297 192
2019-01-21 23:32:36 GMT 39.926643 -104.939842 10,450 299 297 192
2019-01-21 23:32:33 GMT 39.924500 -104.934692 10,450 299 297 128
2019-01-21 23:32:30 GMT 39.922829 -104.930733 10,425 299 296 384
2019-01-21 23:32:25 GMT 39.919289 -104.921936 10,375 298 293 320
2019-01-21 23:32:21 GMT 39.916355 -104.914795 10,350 299 291 448
2019-01-21 23:32:15 GMT 39.912071 -104.905090 10,325 301 289 320
2019-01-21 23:32:10 GMT 39.908909 -104.898315 10,300 301 285 256
2019-01-21 23:32:02 GMT 39.903694 -104.886841 10,275 301 282 512
2019-01-21 23:31:59 GMT 39.901691 -104.882507 10,225 301 279 704
2019-01-21 23:31:52 GMT 39.894882 -104.867729 10,075 302 275 1216
2019-01-21 23:31:49 GMT 39.894882 -104.867729 10,025 302 273 1280
2019-01-21 23:31:45 GMT 39.889709 -104.856438 9,850 301 270 2240
2019-01-21 23:31:41 GMT 39.889709 -104.856438 9,800 301 270 2496
2019-01-21 23:31:37 GMT 39.887493 -104.851562 9,700 301 269 2496
2019-01-21 23:31:32 GMT 39.884399 -104.844742 9,500 301 266 2048
2019-01-21 23:31:29 GMT 39.881927 -104.839249 9,350 300 262 1664
2019-01-21 23:31:26 GMT 39.880650 -104.836365 9,325 300 260 1664
2019-01-21 23:31:20 GMT 39.876415 -104.826965 9,025 302 256 2880
2019-01-21 23:31:14 GMT 39.872971 -104.819885 8,800 304 255 2112
2019-01-21 23:31:10 GMT 39.868221 -104.810791 8,575 305 249 2048
2019-01-21 23:31:06 GMT 39.868221 -104.810791 8,500 305 248 2048
2019-01-21 23:31:03 GMT 39.866226 -104.806946 8,500 305 248 2048
2019-01-21 23:30:59 GMT 39.863068 -104.800797 8,300 304 244 1600
2019-01-21 23:30:56 GMT 39.861752 -104.798218 8,250 304 241 1344
2019-01-21 23:30:53 GMT 39.859142 -104.793091 8,175 304 236 1024
2019-01-21 23:30:49 GMT 39.857002 -104.788879 8,125 304 231 1024
2019-01-21 23:30:45 GMT 39.854507 -104.783897 8,025 303 226 1408
2019-01-21 23:30:42 GMT 39.852997 -104.780670 7,875 299 216 1536
2019-01-21 23:30:38 GMT 39.849380 -104.772194 7,750 298 212 1984
2019-01-21 23:30:31 GMT 39.847599 -104.767578 7,600 294 207 2176
2019-01-21 23:30:26 GMT 39.846390 -104.763916 7,500 293 206 2176
2019-01-21 23:30:21 GMT 39.844528 -104.757561 7,300 288 201 2240
2019-01-21 23:30:17 GMT 39.843410 -104.752625 7,125 284 197 2368
2019-01-21 23:30:14 GMT 39.842651 -104.748611 6,975 282 195 2816
2019-01-21 23:30:09 GMT 39.841732 -104.742493 6,725 276 195 2624
2019-01-21 23:30:06 GMT 39.841499 -104.740173 6,650 276 195 2496

Making use of Plane Finder data

You are free to use the raw flight data, aircraft information and images provided in this report for your own purposes provided the data is correctly attributed to Plane Finder. We ask that you please credit Plane Finder and link to planefinder.net in close proximity to the content.

Optionally one of the following logos (no smaller then 150x24px) can be used and must link to planefinder.net

Embedding the Plane Finder map

You are welcome to embed the Plane Finder playback map on your website to offer visitors a more interactive experience. We suggest using the following HTML code:

<iframe src="//planefinder.net/data/report/UA5113-N916SW-7700-squawk-2019-01-21/map" width="800" height="600" seamless="seamless"></iframe>

Where our data comes from

Plane Finder has a global network of data feeds and antenna radars that receive data broadcast directly from aircraft. The primary technologies used are ADS-B and MLAT. We also show feeds from the FAA and a FLARM glider feed.

Click here to find out more about the Plane Finder network.

How we collect our data